createdAt,value
2022-12-26T00:02:29.855Z,82.31
2022-12-26T00:07:32.608Z,82.07
2022-12-26T00:12:35.656Z,82.36
2022-12-26T00:17:38.470Z,82.77
2022-12-26T00:22:41.121Z,82.25
2022-12-26T00:27:44.093Z,82.32
2022-12-26T00:32:47.124Z,82.61
2022-12-26T00:37:49.888Z,83.51
2022-12-26T00:42:54.502Z,82.91
2022-12-26T00:47:57.147Z,83.47
2022-12-26T00:52:59.844Z,82.57
2022-12-26T00:58:02.672Z,82.52
2022-12-26T01:03:08.379Z,82.73
2022-12-26T01:08:21.492Z,82.73
2022-12-26T01:13:27.011Z,82.88
2022-12-26T01:18:30.003Z,82.35
2022-12-26T01:23:32.652Z,82.06
2022-12-26T01:28:35.413Z,81.21
2022-12-26T01:33:38.331Z,81.84
2022-12-26T01:38:41.042Z,81.56
2022-12-26T01:43:49.438Z,81.42
2022-12-26T01:48:53.949Z,81.75
2022-12-26T01:54:39.811Z,81.96
2022-12-26T01:59:25.570Z,81.86
2022-12-26T02:04:50.603Z,82.30
2022-12-26T02:09:53.566Z,81.85
2022-12-26T02:14:58.083Z,82.55
2022-12-26T02:20:10.657Z,83.10
2022-12-26T02:25:40.661Z,81.99
2022-12-26T02:31:06.145Z,82.61
2022-12-26T02:36:15.023Z,82.97
2022-12-26T02:41:17.643Z,82.97
2022-12-26T02:46:44.770Z,82.72
2022-12-26T02:52:24.892Z,83.13
2022-12-26T02:58:01.444Z,82.96
2022-12-26T03:03:41.431Z,82.99
2022-12-26T03:09:06.014Z,82.78
2022-12-26T03:14:19.706Z,83.26
2022-12-26T03:19:24.293Z,83.14
2022-12-26T03:24:47.308Z,83.10
2022-12-26T03:30:08.338Z,82.89
2022-12-26T03:35:15.058Z,83.27
2022-12-26T03:40:43.615Z,82.50
2022-12-26T03:46:13.759Z,82.88
2022-12-26T03:51:51.268Z,82.39
2022-12-26T03:57:15.617Z,82.91
2022-12-26T04:02:40.470Z,82.88
2022-12-26T04:08:05.857Z,82.32
2022-12-26T04:13:35.018Z,82.88
2022-12-26T04:19:09.329Z,83.05
2022-12-26T04:24:36.884Z,82.66
2022-12-26T04:29:58.362Z,82.63
2022-12-26T04:35:45.739Z,82.33
2022-12-26T04:41:10.672Z,82.74
2022-12-26T04:46:14.301Z,82.41
2022-12-26T04:51:17.016Z,82.69
2022-12-26T04:56:19.671Z,82.20
2022-12-26T05:01:40.695Z,82.18
2022-12-26T05:07:02.114Z,81.61
2022-12-26T05:12:08.778Z,82.13
2022-12-26T05:17:32.229Z,82.55
2022-12-26T05:22:55.209Z,82.12
2022-12-26T05:28:16.441Z,81.89
2022-12-26T05:33:37.394Z,81.46
2022-12-26T05:38:39.992Z,81.52
2022-12-26T05:43:42.625Z,81.50
2022-12-26T05:48:45.440Z,81.35
2022-12-26T05:53:48.845Z,81.33
2022-12-26T05:58:56.230Z,81.71
2022-12-26T06:04:00.298Z,81.44
2022-12-26T06:09:03.162Z,81.63
2022-12-26T06:14:05.820Z,81.44
2022-12-26T06:19:08.749Z,81.54
2022-12-26T06:24:11.449Z,81.32
2022-12-26T06:29:14.176Z,81.80
2022-12-26T06:34:18.678Z,81.57
2022-12-26T06:39:21.616Z,81.39
2022-12-26T06:44:24.309Z,81.37
2022-12-26T06:49:32.435Z,81.66
2022-12-26T06:54:35.747Z,81.04
2022-12-26T06:59:38.425Z,81.39
2022-12-26T07:04:41.334Z,81.07
2022-12-26T07:09:43.994Z,80.99
2022-12-26T07:14:47.059Z,81.18
2022-12-26T07:19:49.790Z,81.37
2022-12-26T07:24:52.420Z,80.75
2022-12-26T07:29:55.109Z,81.41
2022-12-26T07:34:57.815Z,80.97
2022-12-26T07:40:00.443Z,80.86
2022-12-26T07:45:03.163Z,81.38
2022-12-26T07:50:06.597Z,81.45
2022-12-26T07:55:09.798Z,81.50
2022-12-26T08:00:12.872Z,80.87
2022-12-26T08:05:16.422Z,80.79
2022-12-26T08:10:19.281Z,80.97
2022-12-26T08:15:22.028Z,80.83
2022-12-26T08:20:24.969Z,81.53
2022-12-26T08:25:28.130Z,81.25
2022-12-26T08:30:30.823Z,80.93
2022-12-26T08:35:37.671Z,80.72
2022-12-26T08:40:44.318Z,80.58
2022-12-26T08:45:47.551Z,80.78
2022-12-26T08:50:56.354Z,80.52
2022-12-26T08:56:00.111Z,81.19
2022-12-26T09:01:20.509Z,81.11
2022-12-26T09:06:23.777Z,81.65
2022-12-26T09:11:27.355Z,81.66
2022-12-26T09:16:37.501Z,81.69
2022-12-26T09:21:41.662Z,81.08
2022-12-26T09:26:44.847Z,81.16
2022-12-26T09:31:47.488Z,81.51
2022-12-26T09:36:50.137Z,80.83
2022-12-26T09:42:18.718Z,80.61
2022-12-26T09:47:30.207Z,81.02
2022-12-26T09:52:55.254Z,81.21
2022-12-26T09:58:01.815Z,80.65
2022-12-26T10:03:05.114Z,80.60
2022-12-26T10:08:26.561Z,81.49
2022-12-26T10:13:38.423Z,81.24
2022-12-26T10:19:02.827Z,81.00
2022-12-26T10:24:14.405Z,80.90
2022-12-26T10:29:29.382Z,81.37
2022-12-26T10:34:40.809Z,81.04
2022-12-26T10:39:49.556Z,80.74
2022-12-26T10:44:52.226Z,81.15
2022-12-26T10:49:55.201Z,81.29
2022-12-26T10:55:28.627Z,80.74
2022-12-26T11:00:25.122Z,80.97
2022-12-26T11:05:48.969Z,80.91
2022-12-26T11:11:14.217Z,80.57
2022-12-26T11:16:26.406Z,80.63
2022-12-26T11:21:30.621Z,79.75
2022-12-26T11:26:33.301Z,80.26
2022-12-26T11:31:36.445Z,79.84
2022-12-26T11:36:40.986Z,79.81
2022-12-26T11:41:46.797Z,79.95
2022-12-26T11:47:15.552Z,79.50
2022-12-26T11:52:47.632Z,78.83
2022-12-26T11:58:06.962Z,78.95
2022-12-26T12:03:17.047Z,79.13
2022-12-26T12:08:25.400Z,79.80
2022-12-26T12:14:11.046Z,79.27
2022-12-26T12:19:13.922Z,79.72
2022-12-26T12:24:29.469Z,79.75
2022-12-26T12:29:57.854Z,79.58
2022-12-26T12:35:23.102Z,79.89
2022-12-26T12:40:34.487Z,79.47
2022-12-26T12:46:07.899Z,79.67
2022-12-26T12:51:29.218Z,79.00
2022-12-26T12:56:41.996Z,79.17
2022-12-26T13:01:48.155Z,78.96
2022-12-26T13:06:57.608Z,79.13
2022-12-26T13:12:06.960Z,79.39
2022-12-26T13:17:22.134Z,78.79
2022-12-26T13:22:50.815Z,79.52
2022-12-26T13:27:55.590Z,78.79
2022-12-26T13:32:58.238Z,79.10
2022-12-26T13:38:01.141Z,79.47
2022-12-26T13:43:33.043Z,79.59
2022-12-26T13:48:38.700Z,79.04
2022-12-26T13:53:42.415Z,78.45
2022-12-26T13:58:54.437Z,78.53
2022-12-26T14:04:09.622Z,79.12
2022-12-26T14:09:24.218Z,79.21
2022-12-26T14:15:06.145Z,79.64
2022-12-26T14:20:17.290Z,79.48
2022-12-26T14:25:24.813Z,79.39
2022-12-26T14:31:03.264Z,79.68
2022-12-26T14:36:06.098Z,79.81
2022-12-26T14:41:34.809Z,79.62
2022-12-26T14:46:39.117Z,79.00
2022-12-26T14:51:41.984Z,79.26
2022-12-26T14:56:44.888Z,79.34
2022-12-26T15:01:50.131Z,79.52
2022-12-26T15:07:05.010Z,79.62
2022-12-26T15:12:19.556Z,79.90
2022-12-26T15:17:34.198Z,79.34
2022-12-26T15:23:04.452Z,79.46
2022-12-26T15:28:28.783Z,79.95
2022-12-26T15:33:41.447Z,79.39
2022-12-26T15:38:56.102Z,80.01
2022-12-26T15:44:20.397Z,79.79
2022-12-26T15:49:43.269Z,79.74
2022-12-26T15:55:11.123Z,79.64
2022-12-26T16:00:26.371Z,79.44
2022-12-26T16:05:33.095Z,79.44
2022-12-26T16:10:36.726Z,79.67
2022-12-26T16:15:48.807Z,79.96
2022-12-26T16:21:11.287Z,80.23
2022-12-26T16:26:25.553Z,80.09
2022-12-26T16:31:31.461Z,79.99
2022-12-26T16:36:36.916Z,79.82
2022-12-26T16:41:57.997Z,79.73
2022-12-26T16:47:13.544Z,79.40
2022-12-26T16:52:45.827Z,78.97
2022-12-26T16:57:51.409Z,78.85
2022-12-26T17:02:56.887Z,78.75
2022-12-26T17:08:04.227Z,79.18
2022-12-26T17:13:09.947Z,78.84
2022-12-26T17:18:45.309Z,79.06
2022-12-26T17:24:20.633Z,78.92
2022-12-26T17:29:55.386Z,78.64
2022-12-26T17:35:06.445Z,78.82
2022-12-26T17:40:15.012Z,78.76
2022-12-26T17:45:20.943Z,78.77
2022-12-26T17:50:35.652Z,78.73
2022-12-26T17:55:38.487Z,78.92
2022-12-26T18:00:42.245Z,78.93
2022-12-26T18:05:46.584Z,78.88
2022-12-26T18:10:49.354Z,78.93
2022-12-26T18:15:52.898Z,78.91
2022-12-26T18:20:55.706Z,78.96
2022-12-26T18:26:01.235Z,78.74
2022-12-26T18:31:04.187Z,79.27
2022-12-26T18:36:07.908Z,78.81
2022-12-26T18:41:15.509Z,79.02
2022-12-26T18:46:23.750Z,79.32
2022-12-26T18:51:28.248Z,79.29
2022-12-26T18:56:30.990Z,79.35
2022-12-26T19:01:33.777Z,79.23
2022-12-26T19:06:36.494Z,78.92
2022-12-26T19:11:39.985Z,79.10
2022-12-26T19:16:42.682Z,79.14
2022-12-26T19:21:45.548Z,79.07
2022-12-26T19:26:48.135Z,79.48
2022-12-26T19:31:50.897Z,79.38
2022-12-26T19:36:53.567Z,79.53
2022-12-26T19:41:56.199Z,79.58
2022-12-26T19:47:10.952Z,79.19
2022-12-26T19:52:15.498Z,79.53
2022-12-26T19:57:18.342Z,79.69
2022-12-26T20:02:21.267Z,79.56
2022-12-26T20:07:24.122Z,79.46
2022-12-26T20:12:26.897Z,79.28
2022-12-26T20:17:29.551Z,79.09
2022-12-26T20:22:32.295Z,79.04
2022-12-26T20:27:35.092Z,78.48
2022-12-26T20:32:37.761Z,78.56
2022-12-26T20:37:40.512Z,78.13
2022-12-26T20:42:43.213Z,78.04
2022-12-26T20:47:46.011Z,78.36
2022-12-26T20:52:48.729Z,78.15
2022-12-26T20:57:51.385Z,78.17
2022-12-26T21:02:54.212Z,77.87
2022-12-26T21:07:57.091Z,77.67
2022-12-26T21:12:59.758Z,78.01
2022-12-26T21:18:03.301Z,77.88
2022-12-26T21:23:06.139Z,77.59
2022-12-26T21:28:08.768Z,77.63
2022-12-26T21:33:11.430Z,77.52
2022-12-26T21:38:14.229Z,77.52
2022-12-26T21:43:17.388Z,77.18
2022-12-26T21:48:20.130Z,77.22
2022-12-26T21:53:22.849Z,76.53
2022-12-26T21:58:25.536Z,76.63
2022-12-26T22:03:46.629Z,76.65
2022-12-26T22:08:49.384Z,75.99
2022-12-26T22:13:52.016Z,76.10
2022-12-26T22:18:56.712Z,76.41
2022-12-26T22:24:00.035Z,76.15
2022-12-26T22:29:02.756Z,76.55
2022-12-26T22:34:07.692Z,76.11
2022-12-26T22:39:13.825Z,76.54
2022-12-26T22:44:16.482Z,76.18
2022-12-26T22:49:19.275Z,76.78
2022-12-26T22:54:21.973Z,76.70
2022-12-26T22:59:58.120Z,76.51
2022-12-26T23:04:47.695Z,76.17
2022-12-26T23:09:50.587Z,76.30
2022-12-26T23:14:53.408Z,76.06
2022-12-26T23:20:14.667Z,76.06
2022-12-26T23:25:17.506Z,76.17
2022-12-26T23:30:20.321Z,75.50
2022-12-26T23:35:23.940Z,75.61
2022-12-26T23:40:26.669Z,75.52
2022-12-26T23:45:29.839Z,75.25
2022-12-26T23:50:32.401Z,75.42
2022-12-26T23:55:35.231Z,75.27
